Latest Weather Observations for Swan Hill

IDN60801

Issued at 8:33 am EST Monday 27 June 2016 (issued every 30 minutes, with the page automatically refreshed every 10 minutes)

About weather observations | Map of weather stations | Latest weather observations for NSW | Other Formats
Station Details ID: 077094 Name: SWAN HILL AERODROME Lat: -35.38 Lon: 143.54 Height: 71.0 m
Data from the previous 72 hours. | See also: Recent months at Swan Hill
Date/Time
EST
Temp
°C
App
Temp
°C
Dew
Point
°C
Rel
Hum
%
Delta-T
°C
Wind Press
QNH
hPa
Press
MSL
hPa
Rain since
9am
mm
Dir  Spd
km/h
Gust
km/h
Spd
kts
Gust
kts
27/08:30am 6.1 2.7 3.8 85 1.0 NNW 11 15 6 8 1019.6 1019.7 0.0
27/08:00am 5.8 2.7 3.8 87 0.8 NNW 9 11 5 6 1019.4 1019.5 0.0
27/07:30am 5.6 2.5 3.8 88 0.8 NNW 9 11 5 6 1019.2 1019.3 0.0
27/07:00am 5.6 2.5 3.6 87 0.8 NNW 9 9 5 5 1019.0 1019.1 0.0
27/06:30am 5.5 2.8 3.7 88 0.8 NW 7 11 4 6 1018.9 1019.0 0.0
27/06:00am 5.5 3.8 3.8 89 0.7 NNW 2 9 1 5 1018.5 1018.6 0.0
27/05:30am 5.4 2.7 3.7 89 0.7 N 7 7 4 4 1018.3 1018.4 0.0
27/05:00am 5.4 2.7 3.7 89 0.7 N 7 9 4 5 1017.8 1018.0 0.0
27/04:30am 5.5 2.8 3.7 88 0.8 N 7 9 4 5 1017.7 1017.9 0.0
27/04:00am 5.6 2.5 3.8 88 0.8 N 9 11 5 6 1017.8 1018.0 0.0
27/03:30am 5.5 2.4 3.8 89 0.7 N 9 11 5 6 1018.0 1018.2 0.0
27/03:00am 5.5 2.9 4.0 90 0.6 NNW 7 9 4 5 1017.9 1018.1 0.0
27/02:30am 5.5 3.0 4.0 90 0.6 NNW 6 9 3 5 1017.9 1018.1 0.0
27/02:00am 5.5 3.0 4.0 90 0.6 NW 6 7 3 4 1017.9 1018.1 0.0
27/01:30am 5.5 2.4 3.8 89 0.7 NW 9 9 5 5 1017.8 1018.0 0.0
27/01:00am 5.6 2.5 3.8 88 0.8 NNW 9 9 5 5 1017.9 1018.1 0.0
27/12:30am 5.8 2.7 3.6 86 0.9 N 9 11 5 6 1017.8 1018.0 0.0
27/12:00am 5.5 2.1 3.8 89 0.7 N 11 13 6 7 1017.8 1018.0 0.0
 
Date/Time
EST
Temp
°C
App
Temp
°C
Dew
Point
°C
Rel
Hum
%
Delta-T
°C
Wind Press
QNH
hPa
Press
MSL
hPa
Rain since
9am
mm
Dir  Spd
km/h
Gust
km/h
Spd
kts
Gust
kts
26/11:30pm 5.1 2.0 3.6 90 0.6 NNW 9 11 5 6 1017.9 1018.1 0.0
26/11:00pm 4.8 1.6 3.1 89 0.7 NNW 9 9 5 5 1018.2 1018.3 0.0
26/10:30pm 4.9 1.7 2.9 87 0.8 N 9 9 5 5 1018.0 1018.2 0.0
26/10:00pm 5.4 2.6 3.1 85 1.0 N 7 7 4 4 1018.0 1018.2 0.0
26/09:30pm 5.9 3.1 3.4 84 1.0 N 7 9 4 5 1018.2 1018.3 0.0
26/09:00pm 6.0 3.3 3.7 85 1.0 NNE 7 9 4 5 1018.2 1018.3 0.0
26/08:30pm 5.9 3.2 3.6 85 1.0 NNE 7 9 4 5 1018.3 1018.4 0.0
26/08:00pm 6.0 3.3 3.7 85 1.0 N 7 9 4 5 1018.4 1018.5 0.0
26/07:30pm 6.2 3.5 3.7 84 1.1 N 7 7 4 4 1018.4 1018.5 0.0
26/07:00pm 6.4 3.7 3.7 83 1.1 N 7 7 4 4 1018.3 1018.4 0.0
26/06:30pm 6.7 5.3 3.7 81 1.3 CALM 0 7 0 4 1018.3 1018.4 0.0
26/06:00pm 7.3 4.8 3.7 78 1.5 N 6 7 3 4 1018.2 1018.3 0.0
26/05:30pm 7.2 4.6 4.0 80 1.4 N 7 9 4 5 1017.9 1018.1 0.0
26/05:00pm 7.8 4.7 3.5 74 1.8 N 9 11 5 6 1017.5 1017.7 0.0
26/04:30pm 8.2 5.1 3.5 72 2.0 N 9 11 5 6 1017.6 1017.8 0.0
26/04:00pm 8.5 5.3 3.1 69 2.3 N 9 13 5 7 1017.5 1017.7 0.0
26/03:30pm 8.7 5.5 3.1 68 2.4 N 9 13 5 7 1017.7 1017.9 0.0
26/03:00pm 8.8 4.1 3.0 67 2.5 NNW 17 20 9 11 1018.0 1018.2 0.0
26/02:30pm 8.9 4.9 3.1 67 2.5 N 13 17 7 9 1018.3 1018.4 0.0
26/02:00pm 9.0 4.7 3.4 68 2.4 N 15 20 8 11 1018.6 1018.7 0.0
26/01:30pm 9.1 4.8 3.3 67 2.5 N 15 20 8 11 1019.1 1019.2 0.0
26/01:00pm 9.2 4.5 3.2 66 2.6 N 17 20 9 11 1019.5 1019.6 0.0
26/12:30pm 9.0 4.7 3.4 68 2.4 N 15 19 8 10 1020.0 1020.1 0.0
26/12:00pm 8.7 4.5 3.7 71 2.2 N 15 19 8 10 1020.5 1020.6 0.0
26/11:30am 8.1 4.3 3.8 74 1.9 NE 13 17 7 9 1021.2 1021.3 0.0
26/11:00am 7.7 3.9 3.7 76 1.7 NE 13 15 7 8 1021.2 1021.3 0.0
26/10:30am 7.1 5.2 4.8 85 1.0 E 4 7 2 4 1021.0 1021.1 0.0
26/10:00am 6.1 3.5 4.4 89 0.7 E 7 9 4 5 1020.8 1020.9 0.0
26/09:30am 5.1 2.4 3.8 91 0.5 E 7 9 4 5 1020.6 1020.7 0.0
26/09:00am 4.5 1.8 3.5 93 0.4 ESE 7 9 4 5 1021.0 1021.1 0.0
26/08:30am 4.2 1.6 3.3 94 0.4 NNW 6 7 3 4 1021.5 1021.6 0.0
26/08:00am 3.6 0.9 2.7 94 0.4 NNW 6 7 3 4 1021.9 1022.0 0.0
26/07:30am 3.0 1.0 2.1 94 0.4 NNW 2 7 1 4 1022.2 1022.3 0.0
26/07:00am 2.8 1.1 1.9 94 0.4 CALM 0 0 0 0 1022.0 1022.1 0.0
26/06:31am 2.1 0.3 1.2 94 0.3 CALM 0 0 0 0 1021.9 1022.0 0.0
26/06:30am 2.0 0.2 1.1 94 0.3 CALM 0 0 0 0 1021.9 1022.0 0.0
26/06:00am 1.2 -0.8 0.2 93 0.4 CALM 0 0 0 0 1021.9 1022.0 0.0
26/05:33am 1.2 -0.8 0.2 93 0.4 CALM 0 0 0 0 1021.4 1021.5 0.0
26/05:30am 1.2 -0.8 0.2 93 0.4 CALM 0 0 0 0 1021.3 1021.4 0.0
26/05:21am 1.2 -0.8 0.2 93 0.4 CALM 0 0 0 0 1021.3 1021.4 0.0
26/05:08am 1.4 -0.5 0.4 93 0.4 CALM 0 0 0 0 1021.3 1021.4 0.0
26/05:00am 1.5 -0.4 0.5 93 0.4 CALM 0 0 0 0 1021.4 1021.5 0.0
26/04:30am 1.5 -0.4 0.5 93 0.4 CALM 0 0 0 0 1021.1 1021.2 0.0
26/04:03am 1.6 -0.3 0.6 93 0.4 CALM 0 0 0 0 1021.0 1021.1 0.0
26/04:00am 1.5 -0.4 0.5 93 0.4 CALM 0 0 0 0 1021.1 1021.2 0.0
26/03:30am 1.7 -0.2 0.5 92 0.4 CALM 0 0 0 0 1021.5 1021.6 0.0
26/03:00am 1.8 -0.1 0.6 92 0.4 CALM 0 0 0 0 1021.6 1021.7 0.0
26/02:30am 2.3 0.5 1.1 92 0.5 CALM 0 0 0 0 1021.5 1021.6 0.0
26/02:00am 2.4 0.6 1.1 91 0.5 CALM 0 0 0 0 1021.6 1021.7 0.0
26/01:30am 2.1 0.2 0.6 90 0.6 CALM 0 0 0 0 1021.5 1021.6 0.0
26/01:00am 3.2 1.1 1.9 91 0.5 NNW 2 6 1 3 1021.4 1021.5 0.0
26/12:30am 3.5 1.8 1.9 89 0.6 CALM 0 0 0 0 1021.8 1021.9 0.0
26/12:00am 4.2 2.6 2.4 88 0.7 CALM 0 0 0 0 1022.5 1022.6 0.0
 
Date/Time
EST
Temp
°C
App
Temp
°C
Dew
Point
°C
Rel
Hum
%
Delta-T
°C
Wind Press
QNH
hPa
Press
MSL
hPa
Rain since
9am
mm
Dir  Spd
km/h
Gust
km/h
Spd
kts
Gust
kts
25/11:30pm 5.0 3.4 2.5 84 1.0 CALM 0 0 0 0 1022.5 1022.6 0.0
25/11:00pm 5.9 4.4 3.1 82 1.2 CALM 0 6 0 3 1022.8 1022.9 0.0
25/10:30pm 6.5 3.8 3.5 81 1.3 NNW 7 9 4 5 1023.2 1023.3 0.0
25/10:00pm 7.1 4.7 4.2 82 1.2 ENE 6 7 3 4 1023.5 1023.6 0.0
25/09:30pm 7.4 6.2 4.5 82 1.3 CALM 0 0 0 0 1023.7 1023.8 0.0
25/09:00pm 8.1 6.7 3.6 73 1.9 CALM 0 0 0 0 1023.5 1023.6 0.0
25/08:30pm 8.2 6.9 4.2 76 1.7 CALM 0 0 0 0 1023.4 1023.5 0.0
25/08:00pm 8.8 7.3 3.2 68 2.4 CALM 0 6 0 3 1023.4 1023.5 0.0
25/07:30pm 8.8 6.6 3.6 70 2.3 S 4 9 2 5 1023.4 1023.5 0.0
25/07:00pm 9.0 6.9 3.8 70 2.3 SSW 4 7 2 4 1023.3 1023.4 0.0
25/06:30pm 9.2 6.6 3.4 67 2.5 SSW 6 7 3 4 1023.3 1023.4 0.0
25/06:00pm 9.2 7.0 3.6 68 2.4 SSW 4 7 2 4 1023.1 1023.2 0.0
25/05:30pm 9.4 6.6 2.9 64 2.8 SSW 7 9 4 5 1023.2 1023.3 0.0
25/05:00pm 10.2 6.5 2.6 59 3.2 SW 11 13 6 7 1023.2 1023.3 0.0
25/04:30pm 11.1 8.2 2.4 55 3.7 WSW 7 9 4 5 1023.3 1023.4 0.0
25/04:00pm 10.3 6.7 2.9 60 3.2 WSW 11 13 6 7 1023.2 1023.3 0.0
25/03:30pm 10.5 7.3 3.3 61 3.1 SW 9 13 5 7 1023.2 1023.3 0.0
25/03:00pm 11.5 8.3 3.0 56 3.7 WSW 9 13 5 7 1023.4 1023.5 0.0
25/02:30pm 11.4 7.9 3.4 58 3.5 SW 11 19 6 10 1023.3 1023.4 0.0
25/02:00pm 11.5 7.8 4.3 61 3.2 SW 13 20 7 11 1023.5 1023.6 0.0
25/01:30pm 10.7 6.4 3.0 59 3.4 SW 15 19 8 10 1023.9 1024.0 0.0
25/01:00pm 10.4 5.9 4.3 66 2.7 SW 17 20 9 11 1024.2 1024.3 0.0
25/12:30pm 10.0 5.4 3.7 65 2.8 SW 17 20 9 11 1024.5 1024.6 0.0
25/12:00pm 9.8 5.3 4.4 69 2.4 WSW 17 22 9 12 1025.0 1025.1 0.0
25/11:30am 8.8 4.3 4.2 73 2.0 WSW 17 22 9 12 1025.4 1025.5 0.0
25/11:00am 7.8 3.6 3.7 75 1.8 WSW 15 17 8 9 1025.6 1025.7 0.0
25/10:30am 6.9 2.7 3.7 80 1.4 SW 15 19 8 10 1025.5 1025.6 0.0
25/10:00am 5.8 1.1 3.1 83 1.1 WSW 17 20 9 11 1025.3 1025.4 0.0
25/09:30am 4.2 0.1 2.1 86 0.8 SW 13 17 7 9 1025.0 1025.1 0.0
25/09:00am 3.2 -1.0 1.7 90 0.6 WSW 13 17 7 9 1024.8 1024.9 0.6
25/08:30am 1.8 -1.2 0.6 92 0.4 W 6 11 3 6 1024.7 1024.8 0.6
25/08:00am 0.9 -2.3 -0.2 92 0.4 W 6 7 3 4 1024.5 1024.6 0.6
25/07:30am 0.5 -2.7 -0.6 92 0.4 W 6 7 3 4 1024.2 1024.3 0.6
25/07:00am 0.8 -3.3 -0.5 91 0.5 W 11 13 6 7 1023.9 1024.0 0.6
25/06:30am 1.4 -3.4 0.1 91 0.5 WSW 15 19 8 10 1023.3 1023.4 0.6
25/06:00am 1.4 -2.7 0.1 91 0.5 SW 11 15 6 8 1022.9 1023.0 0.6
25/05:30am 1.6 -3.2 0.3 91 0.5 WSW 15 17 8 9 1022.7 1022.8 0.6
25/05:00am 1.9 -1.7 0.4 90 0.6 SW 9 13 5 7 1022.5 1022.6 0.6
25/04:30am 2.0 -3.1 0.7 91 0.5 WSW 17 20 9 11 1022.3 1022.4 0.6
25/04:00am 2.1 -2.6 0.6 90 0.6 WSW 15 19 8 10 1022.1 1022.2 0.6
25/03:30am 1.8 -2.6 0.5 91 0.5 WSW 13 15 7 8 1022.1 1022.2 0.6
25/03:00am 2.0 -2.4 0.5 90 0.6 WSW 13 17 7 9 1022.1 1022.2 0.4
25/02:30am 2.2 -2.1 0.7 90 0.6 WSW 13 17 7 9 1022.1 1022.2 0.4
25/02:00am 2.3 -2.0 0.7 89 0.6 WSW 13 17 7 9 1022.0 1022.1 0.4
25/01:30am 2.7 -2.4 0.9 88 0.7 WSW 17 20 9 11 1021.9 1022.0 0.4
25/01:00am 2.9 -2.1 1.1 88 0.7 WSW 17 20 9 11 1021.7 1021.8 0.4
25/12:30am 3.1 -2.3 1.2 87 0.7 WSW 19 22 10 12 1021.4 1021.5 0.4
25/12:00am 3.1 -2.5 1.2 87 0.7 W 20 24 11 13 1021.3 1021.4 0.4
 
Date/Time
EST
Temp
°C
App
Temp
°C
Dew
Point
°C
Rel
Hum
%
Delta-T
°C
Wind Press
QNH
hPa
Press
MSL
hPa
Rain since
9am
mm
Dir  Spd
km/h
Gust
km/h
Spd
kts
Gust
kts
24/11:30pm 3.2 -1.8 1.4 88 0.7 WSW 17 20 9 11 1021.1 1021.2 0.4
24/11:00pm 3.6 -1.4 1.6 87 0.8 WSW 17 20 9 11 1020.8 1020.9 0.4
24/10:30pm 3.9 -0.7 1.8 86 0.8 WSW 15 19 8 10 1020.7 1020.8 0.4
24/10:00pm 4.3 -1.0 1.7 83 1.0 WSW 19 22 10 12 1020.5 1020.6 0.4
24/09:30pm 4.3 -1.0 2.0 85 0.9 WSW 19 24 10 13 1020.2 1020.3 0.4
24/09:00pm 4.0 -0.6 1.7 85 0.9 WSW 15 19 8 10 1019.8 1019.9 0.4
24/08:30pm 4.4 -0.1 2.1 85 0.9 WSW 15 19 8 10 1019.4 1019.5 0.4
24/08:00pm 4.0 -0.6 1.7 85 0.9 WSW 15 17 8 9 1018.8 1018.9 0.4
24/07:30pm 4.4 0.2 1.4 81 1.2 SW 13 15 7 8 1018.0 1018.2 0.4
24/07:00pm 4.5 0.3 1.5 81 1.2 WSW 13 15 7 8 1017.5 1017.7 0.4
24/06:30pm 6.0 1.1 1.9 75 1.7 WSW 17 20 9 11 1016.9 1017.0 0.4
24/06:00pm 6.7 0.8 1.6 70 2.1 WSW 22 32 12 17 1016.5 1016.6 0.4
24/05:30pm 7.2 0.6 1.9 69 2.2 WSW 26 33 14 18 1015.8 1015.9 0.4
24/05:00pm 7.9 1.8 2.6 69 2.2 WSW 24 33 13 18 1014.9 1015.0 0.4
24/04:31pm 8.2 1.1 3.5 72 2.0 SW 30 48 16 26 1014.3 1014.4 0.4
24/04:30pm 8.1 0.6 3.6 73 1.9 SW 32 48 17 26 1014.2 1014.3 0.4
24/04:04pm 8.6 1.2 3.8 72 2.1 SW 32 50 17 27 1013.6 1013.7 0.4
24/04:02pm 8.3 0.9 3.8 73 2.0 SW 32 50 17 27 1013.5 1013.6 0.4
24/04:00pm 8.2 0.8 4.2 76 1.7 SW 32 41 17 22 1013.6 1013.7 0.2
24/03:51pm 7.9 -0.1 3.9 76 1.7 SW 35 54 19 29 1013.5 1013.6 0.2
24/03:43pm 9.0 1.3 3.2 67 2.5 WSW 33 54 18 29 1013.5 1013.6 0.0
24/03:30pm 9.3 1.4 2.2 61 3.0 WSW 33 48 18 26 1013.1 1013.2 0.0
24/03:05pm 9.4 0.4 2.5 62 2.9 WSW 39 57 21 31 1012.8 1012.9 0.0
24/03:00pm 9.7 -0.1 2.3 60 3.1 WSW 43 57 23 31 1012.8 1012.9 0.0
24/02:30pm 9.6 -0.2 2.2 60 3.1 WSW 43 59 23 32 1011.9 1012.0 0.0
24/02:00pm 9.6 -0.2 2.2 60 3.1 WSW 43 52 23 28 1011.8 1011.9 0.0
24/01:30pm 9.9 0.0 2.7 61 3.1 WSW 44 57 24 31 1011.4 1011.5 0.0
24/01:00pm 10.1 1.3 3.6 64 2.9 WSW 39 54 21 29 1011.3 1011.4 0.0
24/12:30pm 9.7 0.2 3.9 67 2.6 WSW 43 54 23 29 1011.1 1011.2 0.0
24/12:00pm 9.6 0.9 4.2 69 2.4 WSW 39 48 21 26 1010.9 1011.0 0.0
24/11:30am 8.9 -0.2 3.9 71 2.2 W 41 50 22 27 1010.6 1010.7 0.0
24/11:00am 8.3 -1.1 4.3 76 1.8 W 43 57 23 31 1010.2 1010.3 0.0
24/10:30am 7.8 -0.1 4.4 79 1.5 W 35 44 19 24 1009.9 1010.0 0.0
24/10:00am 7.1 -1.3 3.7 79 1.5 W 37 46 20 25 1009.5 1009.6 0.0
24/09:30am 7.1 -1.2 4.2 82 1.3 W 37 46 20 25 1008.6 1008.7 0.0
24/09:29am 7.0 -0.9 4.1 82 1.3 W 35 46 19 25 1008.7 1008.8 0.0
24/09:10am 6.3 -1.3 4.1 86 0.9 W 33 43 18 23 1008.3 1008.4 0.0
24/09:00am 6.4 -1.5 4.2 86 0.9 W 35 50 19 27 1007.9 1008.0 6.0

Other Formats:

Comma delimited format used in spreadsheet applications
http://www.bom.gov.au/fwo/IDN60801/IDN60801.94843.axf

JavaScript Object Notation format (JSON) in row-major order
http://www.bom.gov.au/fwo/IDN60801/IDN60801.94843.json